Time;durP1;ratioP1;P1;durP2;ratioP2;P2;SDS_P1;SDS_P2;PMS_P1;PMS_P2;Temp;Humidity;BMP_temperature;BMP_pressure;BME280_temperature;BME280_humidity;BME280_pressure;Samples;Min_cycle;Max_cycle;Signal;HPM_P1;HPM_P2
2023/03/07 00:01:30;;;;;;;5.97;2.63;;;;;;;-3.68;72.10;97987.97;7345638;19;20027;-72
2023/03/07 00:03:56;;;;;;;4.30;2.53;;;;;;;-3.62;72.09;97985.13;7345091;19;20446;-73
2023/03/07 00:06:21;;;;;;;5.68;2.67;;;;;;;-3.65;71.90;97972.22;7344916;19;20018;-73
2023/03/07 00:08:50;;;;;;;4.13;2.60;;;;;;;-3.64;71.87;97986.09;7345492;19;20046;-72
2023/03/07 00:11:15;;;;;;;4.38;2.10;;;;;;;-3.74;71.89;97970.84;7347897;19;20029;-71
2023/03/07 00:13:39;;;;;;;3.58;1.80;;;;;;;-3.71;71.90;97972.47;7343389;19;20011;-72
2023/03/07 00:16:07;;;;;;;6.88;1.80;;;;;;;-3.74;71.89;97981.28;7345538;19;20034;-71
2023/03/07 00:18:32;;;;;;;3.40;1.67;;;;;;;-3.86;72.08;97976.56;7349543;19;20021;-72
2023/03/07 00:20:58;;;;;;;3.33;1.85;;;;;;;-3.80;72.37;97980.66;7348303;19;20028;-73
2023/03/07 00:23:23;;;;;;;4.97;2.55;;;;;;;-3.75;72.12;97971.75;7350930;19;20038;-72
2023/03/07 00:26:01;;;;;;;3.13;1.80;;;;;;;-3.89;72.22;97965.41;7346878;19;20014;-70
2023/03/07 00:28:26;;;;;;;2.25;1.50;;;;;;;-4.10;72.48;97962.75;7348471;19;20022;-70
2023/03/07 00:30:50;;;;;;;3.42;2.10;;;;;;;-4.05;72.80;97975.56;7345784;19;20026;-71
2023/03/07 00:33:15;;;;;;;5.03;2.38;;;;;;;-4.13;72.88;97972.44;7348479;19;20018;-70
2023/03/07 00:35:40;;;;;;;3.20;1.83;;;;;;;-4.10;72.95;97973.19;7345963;19;20006;-70
2023/03/07 00:38:04;;;;;;;5.43;2.63;;;;;;;-4.16;73.15;97967.34;7345512;19;20018;-70
2023/03/07 00:40:29;;;;;;;3.00;1.73;;;;;;;-4.13;73.37;97965.47;7344429;19;20485;-70
2023/03/07 00:42:53;;;;;;;7.00;2.25;;;;;;;-4.15;73.40;97966.44;7344367;19;20083;-71
2023/03/07 00:45:18;;;;;;;3.42;1.58;;;;;;;-4.04;73.73;97972.91;7347087;19;20014;-78
2023/03/07 00:47:43;;;;;;;3.45;1.40;;;;;;;-4.02;75.12;97963.31;7344480;19;20465;-80
2023/03/07 00:50:08;;;;;;;2.13;1.30;;;;;;;-3.97;74.85;97963.13;7347874;19;20007;-78
2023/03/07 00:52:33;;;;;;;2.97;2.13;;;;;;;-3.93;74.66;97958.63;7346407;19;20019;-73
2023/03/07 00:54:58;;;;;;;10.18;2.45;;;;;;;-3.88;74.42;97967.09;7346756;19;20044;-79
2023/03/07 00:57:22;;;;;;;4.03;1.92;;;;;;;-3.92;74.49;97957.72;7345994;19;20011;-77
2023/03/07 00:59:47;;;;;;;2.00;1.73;;;;;;;-4.08;74.62;97950.56;7346740;19;20021;-77
2023/03/07 01:02:12;;;;;;;4.43;2.45;;;;;;;-4.07;74.83;97961.81;7345549;19;20041;-78
2023/03/07 01:04:36;;;;;;;1.90;1.63;;;;;;;-4.08;75.05;97963.56;7344310;19;20022;-72
2023/03/07 01:07:01;;;;;;;4.20;2.58;;;;;;;-4.19;75.39;97962.28;7344795;19;20106;-73
2023/03/07 01:09:26;;;;;;;12.60;2.25;;;;;;;-4.18;75.33;97964.00;7343697;19;20052;-72
2023/03/07 01:11:50;;;;;;;3.10;1.63;;;;;;;-4.24;75.66;97970.25;7341371;19;20021;-73
2023/03/07 01:14:16;;;;;;;2.63;1.90;;;;;;;-4.32;76.02;97961.91;7341925;19;20327;-74
2023/03/07 01:16:40;;;;;;;2.35;1.38;;;;;;;-4.39;76.35;97968.25;7343752;19;20466;-73
2023/03/07 01:19:11;;;;;;;4.80;2.15;;;;;;;-4.46;76.53;97959.00;7344785;19;20030;-76
2023/03/07 01:21:38;;;;;;;4.15;2.33;;;;;;;-4.59;77.24;97957.75;7345405;19;20010;-73
2023/03/07 01:24:05;;;;;;;2.70;1.88;;;;;;;-4.67;77.60;97963.25;7343533;19;20509;-75
2023/03/07 01:26:31;;;;;;;4.22;2.60;;;;;;;-4.68;77.92;97968.50;7348198;19;20019;-74
2023/03/07 01:28:59;;;;;;;4.30;2.58;;;;;;;-4.59;77.42;97963.81;7348875;19;20034;-75
2023/03/07 01:31:25;;;;;;;4.30;2.67;;;;;;;-4.68;77.72;97961.56;7346712;19;20006;-68
2023/03/07 01:33:51;;;;;;;2.25;2.05;;;;;;;-4.73;78.08;97965.22;7343334;19;20022;-68
2023/03/07 01:36:29;;;;;;;4.10;2.63;;;;;;;-4.68;78.03;97964.16;7345871;19;20469;-68
2023/03/07 01:39:01;;;;;;;3.38;2.55;;;;;;;-4.66;78.08;97971.91;7342556;19;20017;-68
2023/03/07 01:41:30;;;;;;;4.05;1.80;;;;;;;-4.58;78.31;97969.84;7345738;19;20022;-69
2023/03/07 01:43:56;;;;;;;3.55;1.60;;;;;;;-4.50;78.25;97963.44;7341285;19;20031;-71
2023/03/07 01:46:42;;;;;;;4.15;2.17;;;;;;;-4.43;77.82;97964.94;7342181;19;20049;-67
2023/03/07 01:49:14;;;;;;;2.85;1.48;;;;;;;-4.23;77.33;97969.34;7343873;19;20010;-71
2023/03/07 01:51:42;;;;;;;5.18;2.75;;;;;;;-4.36;77.27;97969.88;7343391;19;20014;-71
2023/03/07 01:54:09;;;;;;;2.78;2.10;;;;;;;-4.37;77.29;97966.44;7342511;19;20018;-70
2023/03/07 01:56:36;;;;;;;3.90;2.03;;;;;;;-4.37;77.41;97969.03;7346186;19;20465;-73
2023/03/07 01:59:01;;;;;;;3.80;1.92;;;;;;;-4.30;77.22;97965.31;7352632;19;20010;-69
2023/03/07 02:01:26;;;;;;;2.20;1.10;;;;;;;-4.18;77.06;97970.03;7342178;19;20042;-70
2023/03/07 02:04:01;;;;;;;1.95;1.70;;;;;;;-4.23;76.92;97977.16;7343273;19;20027;-69
2023/03/07 02:06:27;;;;;;;2.78;1.85;;;;;;;-4.18;76.79;97977.84;7346543;19;20086;-70
2023/03/07 02:08:54;;;;;;;6.03;2.50;;;;;;;-4.33;76.90;97973.22;7344800;19;20014;-70
2023/03/07 02:11:18;;;;;;;3.03;1.60;;;;;;;-4.25;76.87;97958.16;7345991;19;20007;-68
2023/03/07 02:13:43;;;;;;;6.68;1.92;;;;;;;-4.29;76.95;97967.00;7340986;19;20063;-69
2023/03/07 02:16:08;;;;;;;5.03;3.38;;;;;;;-4.30;76.79;97973.13;7342591;19;20014;-69
2023/03/07 02:18:40;;;;;;;2.47;2.10;;;;;;;-4.25;76.79;97967.72;7341580;19;20019;-68
2023/03/07 02:21:27;;;;;;;6.47;3.10;;;;;;;-4.38;76.87;97957.78;7343933;19;20026;-70
2023/03/07 02:24:05;;;;;;;6.93;3.25;;;;;;;-4.40;77.06;97962.19;7348221;19;20011;-70
2023/03/07 02:26:30;;;;;;;2.92;2.20;;;;;;;-4.40;77.06;97953.53;7351125;19;20009;-69
2023/03/07 02:28:56;;;;;;;5.45;2.28;;;;;;;-4.37;76.98;97963.84;7349362;19;20015;-69
2023/03/07 02:31:21;;;;;;;5.78;2.95;;;;;;;-4.43;77.24;97964.94;7349799;19;20022;-69
2023/03/07 02:33:46;;;;;;;6.13;2.40;;;;;;;-4.40;77.31;97963.94;7348349;19;20010;-69
2023/03/07 02:36:14;;;;;;;2.47;1.85;;;;;;;-4.35;77.17;97959.44;7354603;19;20007;-69
2023/03/07 02:39:01;;;;;;;4.20;2.65;;;;;;;-4.35;77.15;97959.44;7349698;19;20393;-71
2023/03/07 02:41:31;;;;;;;6.90;3.25;;;;;;;-4.39;77.07;97958.69;7348311;19;20006;-73
2023/03/07 02:43:59;;;;;;;2.65;1.95;;;;;;;-4.27;76.79;97970.38;7349895;19;20079;-72
2023/03/07 02:46:24;;;;;;;7.35;2.85;;;;;;;-4.42;76.95;97968.38;7350409;19;20006;-71
2023/03/07 02:48:48;;;;;;;2.92;2.35;;;;;;;-4.59;77.38;97961.22;7348556;19;20039;-68
2023/03/07 02:51:14;;;;;;;4.25;2.33;;;;;;;-4.46;77.20;97959.00;7347461;19;20339;-69
2023/03/07 02:53:41;;;;;;;4.45;1.30;;;;;;;-4.53;77.54;97955.78;7348690;19;20022;-68
2023/03/07 02:56:06;;;;;;;3.22;2.75;;;;;;;-4.57;77.50;97958.56;7349240;19;20018;-74
2023/03/07 02:58:31;;;;;;;5.35;2.67;;;;;;;-4.52;77.17;97952.28;7350587;19;20011;-77
2023/03/07 03:00:56;;;;;;;5.30;2.90;;;;;;;-4.53;77.39;97970.53;7351365;19;20078;-81
2023/03/07 03:03:20;;;;;;;4.57;2.88;;;;;;;-4.46;77.03;97959.00;7354069;19;20414;-78
2023/03/07 03:05:45;;;;;;;6.38;3.50;;;;;;;-4.68;77.46;97963.31;7351222;19;20034;-81
2023/03/07 03:08:11;;;;;;;3.75;2.15;;;;;;;-4.66;77.45;97964.09;7351079;19;20007;-78
2023/03/07 03:10:36;;;;;;;5.47;2.83;;;;;;;-4.63;77.37;97961.41;7350896;19;20023;-79
2023/03/07 03:13:01;;;;;;;5.75;3.00;;;;;;;-4.67;77.44;97972.81;7348288;19;20021;-80
2023/03/07 03:15:25;;;;;;;4.97;3.08;;;;;;;-4.90;77.99;97969.31;7349048;19;20011;-78
2023/03/07 03:17:52;;;;;;;6.38;2.63;;;;;;;-4.85;77.91;97977.75;7350296;19;20017;-77
2023/03/07 03:20:18;;;;;;;5.32;2.92;;;;;;;-5.01;78.14;97965.41;7351780;19;20015;-76
2023/03/07 03:22:42;;;;;;;5.13;3.20;;;;;;;-5.11;78.51;97967.47;7347752;19;20038;-74
2023/03/07 03:25:11;;;;;;;4.45;2.30;;;;;;;-5.02;78.45;97971.50;7347282;19;20011;-73
2023/03/07 03:27:38;;;;;;;4.55;2.03;;;;;;;-5.05;78.33;97974.19;7349219;19;20014;-75
2023/03/07 03:30:04;;;;;;;3.20;2.58;;;;;;;-5.05;78.32;97982.00;7349848;19;20465;-70
2023/03/07 03:32:32;;;;;;;4.93;2.78;;;;;;;-5.06;78.21;97975.94;7349960;19;20013;-73
2023/03/07 03:34:56;;;;;;;3.97;2.60;;;;;;;-5.19;78.73;97978.13;7346042;19;20014;-74
2023/03/07 03:37:21;;;;;;;4.60;2.80;;;;;;;-5.25;79.17;97980.09;7350486;19;20037;-72
2023/03/07 03:39:46;;;;;;;5.18;2.42;;;;;;;-5.06;78.83;97983.75;7354445;19;20049;-76
2023/03/07 03:42:11;;;;;;;2.20;1.10;;;;;;;-5.07;78.89;97976.84;7348728;19;20022;-77
2023/03/07 03:44:36;;;;;;;6.30;3.03;;;;;;;-5.09;78.57;97981.28;7350043;19;20070;-76
2023/03/07 03:47:01;;;;;;;6.55;2.65;;;;;;;-4.99;78.34;97982.63;7348447;19;20010;-77
2023/03/07 03:49:26;;;;;;;3.60;3.00;;;;;;;-5.07;78.50;97984.63;7348890;19;20042;-77
2023/03/07 03:51:52;;;;;;;6.50;3.00;;;;;;;-5.15;78.82;97968.47;7346890;19;20822;-79
2023/03/07 03:54:17;;;;;;;3.53;2.63;;;;;;;-5.09;78.67;97980.41;7347045;19;20469;-78
2023/03/07 03:56:41;;;;;;;6.90;3.38;;;;;;;-5.06;78.71;97980.28;7347048;19;20022;-77
2023/03/07 03:59:06;;;;;;;5.88;3.17;;;;;;;-5.14;78.73;97985.75;7348345;19;20454;-77
2023/03/07 04:01:31;;;;;;;5.65;3.17;;;;;;;-5.14;78.82;97986.63;7346649;19;20028;-77
2023/03/07 04:03:57;;;;;;;5.53;3.10;;;;;;;-5.17;78.84;97991.91;7347655;19;20011;-77
2023/03/07 04:06:24;;;;;;;4.15;2.83;;;;;;;-5.19;78.79;97987.69;7349594;19;20014;-77
2023/03/07 04:08:50;;;;;;;5.70;2.67;;;;;;;-5.09;78.69;97983.03;7346158;19;20022;-78
2023/03/07 04:11:16;;;;;;;4.32;2.67;;;;;;;-4.99;78.56;97985.22;7347453;19;20498;-77
2023/03/07 04:13:42;;;;;;;3.20;2.70;;;;;;;-5.10;78.45;97987.38;7343492;19;20473;-77
2023/03/07 04:16:08;;;;;;;5.55;2.63;;;;;;;-5.05;78.38;97985.44;7347832;19;20022;-76
2023/03/07 04:18:34;;;;;;;6.95;3.78;;;;;;;-5.10;78.38;97989.13;7348192;19;20007;-74
2023/03/07 04:20:58;;;;;;;5.45;3.13;;;;;;;-5.08;78.49;97985.56;7350391;19;20029;-75
2023/03/07 04:23:24;;;;;;;7.28;2.70;;;;;;;-5.03;78.42;97986.22;7344585;19;20082;-76
2023/03/07 04:25:56;;;;;;;7.85;3.00;;;;;;;-4.90;78.43;97989.25;7347578;19;20023;-76
2023/03/07 04:28:25;;;;;;;6.90;3.10;;;;;;;-4.89;78.01;97999.59;7345476;19;20605;-75
2023/03/07 04:30:55;;;;;;;6.80;3.72;;;;;;;-4.96;77.75;97985.09;7346238;19;20480;-73
2023/03/07 04:33:21;;;;;;;5.57;3.28;;;;;;;-4.89;77.78;97988.34;7343362;19;20015;-75
2023/03/07 04:35:47;;;;;;;5.55;3.20;;;;;;;-4.82;77.73;97990.66;7348476;19;20022;-76
2023/03/07 04:38:13;;;;;;;4.40;2.40;;;;;;;-4.85;77.80;97997.69;7345549;19;20021;-77
2023/03/07 04:40:38;;;;;;;4.40;2.38;;;;;;;-4.81;77.45;97994.94;7346898;19;20018;-74
2023/03/07 04:43:04;;;;;;;3.08;2.17;;;;;;;-4.77;77.39;97993.09;7346534;19;20046;-76
2023/03/07 04:45:31;;;;;;;6.07;2.75;;;;;;;-4.73;77.29;97997.25;7348237;19;20027;-75
2023/03/07 04:47:55;;;;;;;11.25;3.75;;;;;;;-4.86;77.40;97991.69;7348940;19;20010;-77
2023/03/07 04:50:20;;;;;;;3.30;2.38;;;;;;;-4.71;77.45;97994.63;7347826;19;20041;-76
2023/03/07 04:52:45;;;;;;;5.43;3.35;;;;;;;-4.67;77.11;98001.41;7345819;19;20025;-76
2023/03/07 04:55:11;;;;;;;7.30;3.30;;;;;;;-4.64;76.93;98002.16;7346656;19;20023;-74
2023/03/07 04:57:37;;;;;;;6.13;3.10;;;;;;;-4.70;76.94;98006.72;7347088;19;20089;-74
2023/03/07 05:00:04;;;;;;;4.63;3.22;;;;;;;-4.69;76.95;98011.84;7348393;19;20450;-72
2023/03/07 05:02:28;;;;;;;7.72;3.20;;;;;;;-4.59;76.81;98005.41;7351094;19;20504;-74
2023/03/07 05:04:53;;;;;;;7.72;3.10;;;;;;;-4.50;76.76;98007.66;7348034;19;20022;-74
2023/03/07 05:07:19;;;;;;;7.18;3.17;;;;;;;-4.33;76.40;98008.78;7345654;19;20018;-74
2023/03/07 05:09:44;;;;;;;6.70;3.47;;;;;;;-4.22;75.97;98009.22;7347104;19;20089;-74
2023/03/07 05:12:09;;;;;;;5.57;3.60;;;;;;;-4.31;75.66;98015.63;7345451;19;20442;-74
2023/03/07 05:14:34;;;;;;;8.07;3.17;;;;;;;-4.10;75.60;98025.22;7346014;19;20737;-75
2023/03/07 05:16:59;;;;;;;7.18;3.60;;;;;;;-3.67;75.52;98021.75;7345763;19;20018;-74
2023/03/07 05:19:24;;;;;;;2.85;1.90;;;;;;;-3.17;74.93;98023.19;7347039;19;20082;-74
2023/03/07 05:21:49;;;;;;;5.13;3.70;;;;;;;-3.19;72.38;98023.25;7346689;19;20079;-73
2023/03/07 05:24:14;;;;;;;7.35;3.85;;;;;;;-3.22;72.05;98026.00;7349213;19;20018;-74
2023/03/07 05:26:39;;;;;;;5.35;3.00;;;;;;;-3.34;71.83;98027.34;7349421;19;20033;-71
2023/03/07 05:29:04;;;;;;;3.50;2.25;;;;;;;-3.44;71.99;98018.22;7353843;19;20018;-71
2023/03/07 05:31:29;;;;;;;5.60;2.72;;;;;;;-3.37;72.27;98030.06;7349591;19;20022;-71
2023/03/07 05:33:54;;;;;;;8.07;3.45;;;;;;;-3.44;72.23;98023.44;7349722;19;20014;-70
2023/03/07 05:36:18;;;;;;;4.45;3.15;;;;;;;-3.60;72.15;98029.31;7352885;19;20014;-70
2023/03/07 05:38:43;;;;;;;5.93;3.65;;;;;;;-3.51;72.28;98028.97;7352754;19;20012;-70
2023/03/07 05:41:08;;;;;;;5.65;3.10;;;;;;;-3.53;72.44;98028.19;7353110;19;20010;-72
2023/03/07 05:43:33;;;;;;;5.22;3.17;;;;;;;-3.55;72.45;98038.66;7354359;19;20011;-71
2023/03/07 05:45:58;;;;;;;5.78;3.45;;;;;;;-3.46;72.72;98033.06;7346120;19;20010;-72
2023/03/07 05:48:23;;;;;;;7.95;3.47;;;;;;;-3.49;72.42;98040.13;7343901;19;20006;-71
2023/03/07 05:50:47;;;;;;;8.38;4.28;;;;;;;-3.41;72.54;98036.34;7342912;19;20018;-69
2023/03/07 05:53:14;;;;;;;10.30;4.78;;;;;;;-3.32;72.36;98043.75;7342357;19;20044;-68
2023/03/07 05:55:38;;;;;;;5.88;3.72;;;;;;;-3.30;71.96;98033.28;7340607;19;20469;-69
2023/03/07 05:58:04;;;;;;;6.32;2.72;;;;;;;-3.10;71.92;98035.91;7346634;19;20021;-68
2023/03/07 06:00:29;;;;;;;8.20;3.88;;;;;;;-2.76;71.84;98030.06;7349519;19;20021;-68
2023/03/07 06:03:00;;;;;;;6.35;3.70;;;;;;;-1.59;70.46;98031.63;7352711;19;20022;-67
2023/03/07 06:05:25;;;;;;;4.72;3.15;;;;;;;-0.21;66.01;98011.38;7348771;19;20007;-66
2023/03/07 06:07:49;;;;;;;6.75;3.28;;;;;;;1.05;62.74;98014.69;7349088;19;20050;-68
2023/03/07 06:10:14;;;;;;;5.72;3.63;;;;;;;1.95;57.80;97997.81;7350970;19;20053;-66
2023/03/07 06:12:39;;;;;;;4.72;2.40;;;;;;;2.68;58.07;98019.41;7348834;19;20099;-68
2023/03/07 06:15:04;;;;;;;5.60;4.40;;;;;;;2.31;53.45;98006.00;7349680;19;20082;-67
2023/03/07 06:17:31;;;;;;;4.35;2.95;;;;;;;2.88;53.61;98011.03;7348819;19;20025;-66
2023/03/07 06:19:56;;;;;;;5.68;3.50;;;;;;;3.18;52.85;98008.97;7350462;19;20007;-68
2023/03/07 06:22:20;;;;;;;5.18;3.65;;;;;;;3.98;52.09;98020.97;7349257;19;20015;-68
2023/03/07 06:24:45;;;;;;;6.78;4.00;;;;;;;4.48;49.58;98011.22;7355745;19;20010;-68
2023/03/07 06:27:10;;;;;;;5.30;3.85;;;;;;;3.69;49.18;98003.72;7351524;19;20014;-70
2023/03/07 06:29:35;;;;;;;6.32;3.60;;;;;;;3.31;50.08;98018.66;7350587;19;20019;-70
2023/03/07 06:32:00;;;;;;;8.23;4.03;;;;;;;3.44;51.56;98036.19;7349307;19;20019;-69
2023/03/07 06:34:25;;;;;;;6.90;3.75;;;;;;;2.81;50.34;98028.19;7346676;19;20038;-70
2023/03/07 06:36:49;;;;;;;5.18;3.30;;;;;;;2.72;51.43;98036.66;7349100;19;20058;-69
2023/03/07 06:39:19;;;;;;;5.95;4.00;;;;;;;2.38;52.46;98038.84;7350662;19;20010;-68
2023/03/07 06:41:49;;;;;;;5.88;3.78;;;;;;;2.14;54.06;98048.31;7351116;19;20014;-68
2023/03/07 06:44:16;;;;;;;7.50;4.03;;;;;;;1.51;54.65;98045.22;7352096;19;20036;-69
2023/03/07 06:46:40;;;;;;;7.22;3.45;;;;;;;0.94;55.62;98064.31;7348183;19;20052;-69
2023/03/07 06:49:10;;;;;;;7.57;3.92;;;;;;;0.64;57.40;98063.44;7346484;19;20010;-67
2023/03/07 06:51:36;;;;;;;6.85;3.85;;;;;;;0.09;57.68;98066.53;7351287;19;20421;-69
2023/03/07 06:54:00;;;;;;;7.35;3.83;;;;;;;-0.25;58.90;98067.50;7351425;19;20382;-70
2023/03/07 06:56:28;;;;;;;7.35;3.63;;;;;;;-0.40;59.87;98069.13;7347484;19;20026;-70
2023/03/07 06:58:53;;;;;;;8.55;3.78;;;;;;;-0.50;60.14;98073.16;7349259;19;20683;-69
2023/03/07 07:01:20;;;;;;;6.53;4.00;;;;;;;-0.48;60.65;98079.16;7347579;19;20018;-68
2023/03/07 07:03:48;;;;;;;5.93;3.25;;;;;;;-0.55;60.81;98074.31;7346093;19;20493;-69
2023/03/07 07:06:14;;;;;;;6.82;3.40;;;;;;;-0.73;60.88;98087.44;7346953;19;20018;-71
2023/03/07 07:08:38;;;;;;;7.43;3.85;;;;;;;-0.95;61.00;98070.28;7346077;19;20626;-69
2023/03/07 07:11:03;;;;;;;7.45;4.18;;;;;;;-1.09;61.62;98078.81;7344896;19;20047;-69
2023/03/07 07:13:28;;;;;;;7.30;3.70;;;;;;;-1.22;62.06;98078.56;7361806;19;20011;-76
2023/03/07 07:15:53;;;;;;;5.82;3.83;;;;;;;-1.08;62.18;98079.66;7364130;19;20014;-76
2023/03/07 07:18:18;;;;;;;9.55;3.63;;;;;;;-0.94;62.57;98071.97;7351545;19;20021;-78
2023/03/07 07:20:43;;;;;;;8.98;3.60;;;;;;;-0.86;62.27;98069.81;7348797;19;20011;-76
2023/03/07 07:23:08;;;;;;;8.02;4.72;;;;;;;-0.95;62.17;98076.34;7350108;19;20469;-72
2023/03/07 07:25:32;;;;;;;7.40;3.90;;;;;;;-1.03;62.09;98077.66;7348357;19;20098;-76
2023/03/07 07:27:57;;;;;;;6.13;3.75;;;;;;;-1.08;62.20;98066.56;7351236;19;20018;-76
2023/03/07 07:30:22;;;;;;;10.20;4.15;;;;;;;-1.06;62.23;98076.03;7347577;19;20031;-71
2023/03/07 07:32:46;;;;;;;5.35;3.38;;;;;;;-1.07;62.74;98065.66;7348402;19;20385;-71
2023/03/07 07:35:11;;;;;;;8.13;4.30;;;;;;;-1.15;62.95;98079.13;7344479;19;20026;-71
2023/03/07 07:37:36;;;;;;;11.23;5.60;;;;;;;-1.15;62.86;98079.13;7347818;19;20030;-72
2023/03/07 07:40:01;;;;;;;5.75;3.92;;;;;;;-1.15;62.90;98079.13;7346573;19;20026;-72
2023/03/07 07:42:26;;;;;;;5.38;3.70;;;;;;;-1.01;63.01;98079.25;7347418;19;20085;-71
2023/03/07 07:45:14;;;;;;;7.00;4.10;;;;;;;-0.86;62.56;98080.28;7345702;19;20006;-71
2023/03/07 07:47:38;;;;;;;10.57;4.95;;;;;;;-0.70;62.55;98086.44;7344500;19;20028;-70
2023/03/07 07:50:04;;;;;;;8.02;4.22;;;;;;;-0.49;62.10;98077.47;7345678;19;20084;-70
2023/03/07 07:52:31;;;;;;;9.13;4.93;;;;;;;-0.15;61.79;98067.84;7345517;19;20014;-71
2023/03/07 07:54:56;;;;;;;4.88;3.30;;;;;;;0.27;60.88;98081.22;7344962;19;20021;-73
2023/03/07 07:57:21;;;;;;;12.05;4.65;;;;;;;0.67;59.53;98069.38;7345119;19;20029;-71
2023/03/07 07:59:47;;;;;;;10.82;4.72;;;;;;;2.93;55.38;98067.66;7346556;19;20018;-69
2023/03/07 08:02:12;;;;;;;7.82;4.07;;;;;;;4.98;50.81;98048.88;7343708;19;20026;-68
2023/03/07 08:04:37;;;;;;;7.75;4.60;;;;;;;6.14;45.60;98046.97;7344748;19;20077;-69
2023/03/07 08:07:02;;;;;;;7.40;4.72;;;;;;;7.98;43.26;98039.63;7347694;19;20018;-68
2023/03/07 08:09:26;;;;;;;5.72;3.50;;;;;;;9.84;40.71;98034.22;7344819;19;20114;-68
2023/03/07 08:11:51;;;;;;;7.28;4.03;;;;;;;10.91;36.91;98023.94;7347398;19;20094;-68
2023/03/07 08:14:15;;;;;;;8.30;4.88;;;;;;;11.92;35.10;98031.50;7345300;19;20060;-69
2023/03/07 08:16:40;;;;;;;7.85;4.65;;;;;;;12.66;33.45;98044.19;7345675;19;20015;-69
2023/03/07 08:19:05;;;;;;;7.20;4.75;;;;;;;13.19;32.21;98021.66;7344337;19;20306;-72
2023/03/07 08:21:30;;;;;;;10.63;4.93;;;;;;;14.18;30.65;98024.91;7345074;19;20643;-70
2023/03/07 08:23:55;;;;;;;9.32;5.45;;;;;;;14.57;29.56;98026.81;7346435;19;20015;-71
2023/03/07 08:26:20;;;;;;;7.93;5.07;;;;;;;14.38;28.34;98024.50;7346941;19;20461;-69
2023/03/07 08:28:44;;;;;;;7.57;4.70;;;;;;;14.89;28.86;98017.78;7345110;19;20489;-69
2023/03/07 08:31:12;;;;;;;7.05;4.93;;;;;;;15.67;27.68;98008.69;7347008;19;20037;-70
2023/03/07 08:33:37;;;;;;;9.85;5.43;;;;;;;15.32;27.80;98027.06;7342576;19;20018;-71
2023/03/07 08:36:02;;;;;;;10.07;5.18;;;;;;;15.67;27.98;98019.44;7345398;19;20014;-70
2023/03/07 08:38:27;;;;;;;7.05;4.85;;;;;;;16.05;26.91;98015.69;7346078;19;20505;-72
2023/03/07 08:40:51;;;;;;;7.85;4.88;;;;;;;16.91;26.42;98019.59;7345450;19;20026;-72
2023/03/07 08:43:16;;;;;;;9.35;4.90;;;;;;;17.61;25.39;98008.91;7345013;19;20018;-71
2023/03/07 08:45:40;;;;;;;8.52;5.35;;;;;;;16.46;25.37;98009.88;7344470;19;20478;-71
2023/03/07 08:48:05;;;;;;;10.43;5.68;;;;;;;17.15;25.43;98007.63;7343493;19;20015;-71
2023/03/07 08:50:30;;;;;;;14.50;6.25;;;;;;;16.70;24.93;98005.03;7345473;19;20022;-69
2023/03/07 08:52:56;;;;;;;10.88;4.50;;;;;;;17.96;24.90;98011.69;7344631;19;20485;-69
2023/03/07 08:55:21;;;;;;;9.98;5.47;;;;;;;16.79;24.86;98008.47;7344836;19;20014;-70
2023/03/07 08:57:46;;;;;;;8.43;5.20;;;;;;;18.11;25.00;98010.59;7344072;19;20102;-69
2023/03/07 09:00:11;;;;;;;8.25;5.43;;;;;;;19.65;23.21;97995.63;7345816;19;20015;-68
2023/03/07 09:02:36;;;;;;;10.77;5.75;;;;;;;20.40;21.74;98002.47;7342509;19;20018;-70
2023/03/07 09:05:01;;;;;;;8.50;4.88;;;;;;;20.57;21.88;97992.00;7343672;19;20010;-71
2023/03/07 09:07:26;;;;;;;8.05;5.28;;;;;;;19.62;21.75;97998.75;7342893;19;20480;-70
2023/03/07 09:09:51;;;;;;;11.20;5.95;;;;;;;19.17;22.39;98000.31;7345197;19;20018;-70
2023/03/07 09:12:16;;;;;;;7.40;5.15;;;;;;;19.99;21.95;97994.56;7341251;19;20013;-70
2023/03/07 09:14:40;;;;;;;7.25;5.63;;;;;;;20.27;21.74;97989.75;7344526;19;20068;-71
2023/03/07 09:17:05;;;;;;;7.85;5.35;;;;;;;20.12;21.37;97991.84;7343604;19;20015;-70
2023/03/07 09:19:30;;;;;;;8.30;5.43;;;;;;;20.60;21.39;98005.94;7343334;19;20029;-70
2023/03/07 09:21:54;;;;;;;8.60;5.30;;;;;;;19.67;21.64;97990.00;7343263;19;20367;-69
2023/03/07 09:24:19;;;;;;;11.07;6.00;;;;;;;19.74;22.02;97997.09;7345167;19;20037;-70
2023/03/07 09:26:43;;;;;;;6.90;5.07;;;;;;;20.27;21.84;97994.34;7342860;19;20018;-70
2023/03/07 09:29:08;;;;;;;7.20;5.00;;;;;;;19.77;20.91;97990.41;7342604;19;20002;-68
2023/03/07 09:31:33;;;;;;;7.18;5.47;;;;;;;20.30;20.75;97996.63;7341192;19;20014;-69
2023/03/07 09:33:57;;;;;;;11.00;5.85;;;;;;;19.91;20.88;97992.09;7338217;19;20020;-70
2023/03/07 09:36:22;;;;;;;8.70;5.85;;;;;;;19.39;22.11;97998.28;7343475;19;20112;-70
2023/03/07 09:38:47;;;;;;;7.75;5.72;;;;;;;17.69;22.92;97995.34;7342620;19;20025;-71
2023/03/07 09:41:47;;;;;;;9.30;6.30;;;;;;;18.23;22.47;97988.44;7341075;19;20011;-71
2023/03/07 09:44:21;;;;;;;9.68;6.30;;;;;;;19.52;22.00;97992.94;7343673;19;20360;-70
2023/03/07 09:47:10;;;;;;;10.30;5.53;;;;;;;20.20;21.84;97990.81;7343142;19;20018;-69
2023/03/07 09:49:52;;;;;;;10.90;7.13;;;;;;;19.61;21.07;97980.88;7341518;19;20027;-69
2023/03/07 09:52:24;;;;;;;7.13;5.43;;;;;;;18.02;22.52;97983.97;7342884;19;20021;-71
2023/03/07 09:54:55;;;;;;;9.05;6.20;;;;;;;17.20;23.57;97987.19;7340735;19;20014;-71
2023/03/07 09:57:27;;;;;;;10.05;5.97;;;;;;;17.12;22.80;97992.69;7340311;19;20028;-68
2023/03/07 09:59:59;;;;;;;9.50;5.70;;;;;;;17.09;23.05;97984.97;7341974;19;20029;-70
2023/03/07 10:02:45;;;;;;;8.57;5.65;;;;;;;17.18;23.17;97993.78;7340763;19;20082;-70
2023/03/07 10:05:22;;;;;;;8.10;5.75;;;;;;;16.06;24.12;97982.41;7344121;19;20018;-69
2023/03/07 10:07:47;;;;;;;8.00;5.82;;;;;;;16.17;24.52;97989.19;7341606;19;20017;-69
2023/03/07 10:10:35;;;;;;;9.57;6.25;;;;;;;16.47;24.45;97981.97;7342663;19;20082;-68
2023/03/07 10:13:02;;;;;;;9.85;6.15;;;;;;;15.34;24.91;97975.88;7338405;19;20018;-71
2023/03/07 10:15:35;;;;;;;9.98;6.18;;;;;;;14.45;26.23;97983.44;7336637;19;20029;-69
2023/03/07 10:18:24;;;;;;;13.57;7.10;;;;;;;14.06;26.33;97986.09;7340414;19;20120;-71
2023/03/07 10:21:06;;;;;;;9.75;5.75;;;;;;;14.02;27.22;97971.34;7339322;19;20027;-69
2023/03/07 10:23:31;;;;;;;8.85;5.95;;;;;;;14.07;26.55;97984.25;7337683;19;20014;-68
2023/03/07 10:26:08;;;;;;;8.23;5.40;;;;;;;14.49;26.48;97973.22;7338910;19;20035;-68
2023/03/07 10:28:36;;;;;;;8.65;5.57;;;;;;;14.52;25.18;97978.22;7341307;19;20018;-67
2023/03/07 10:31:38;;;;;;;7.40;5.57;;;;;;;13.03;26.57;97962.72;7345340;19;20014;-69
2023/03/07 10:34:15;;;;;;;9.15;5.22;;;;;;;11.44;29.11;97977.72;7339810;19;20488;-67
2023/03/07 10:36:47;;;;;;;11.50;5.72;;;;;;;9.05;31.12;97983.13;7339114;19;20028;-67
2023/03/07 10:39:23;;;;;;;8.48;5.25;;;;;;;8.38;33.08;97983.88;7340497;19;20405;-71
2023/03/07 10:41:48;;;;;;;11.50;5.82;;;;;;;7.23;33.92;97978.88;7344169;19;20110;-70
2023/03/07 10:44:17;;;;;;;9.15;6.10;;;;;;;6.75;35.08;97973.22;7343433;19;20003;-76
2023/03/07 10:46:43;;;;;;;9.55;5.97;;;;;;;6.27;36.03;97978.06;7348917;19;20466;-75
2023/03/07 10:49:15;;;;;;;7.57;5.38;;;;;;;6.11;36.40;97972.28;7350896;19;20011;-79
2023/03/07 10:51:49;;;;;;;8.80;5.57;;;;;;;5.80;37.42;97966.78;7361113;19;20014;-71
2023/03/07 10:54:19;;;;;;;10.48;5.53;;;;;;;5.46;37.59;97970.38;7353852;19;20011;-70
2023/03/07 10:57:11;;;;;;;10.27;4.80;;;;;;;5.48;37.87;97979.03;7355641;19;20056;-70
2023/03/07 10:59:38;;;;;;;6.97;5.25;;;;;;;4.69;39.07;97979.78;7348148;19;20018;-73
2023/03/07 11:02:23;;;;;;;9.48;5.43;;;;;;;4.67;39.86;97977.25;7348715;19;20018;-71
2023/03/07 11:04:48;;;;;;;9.73;5.57;;;;;;;4.34;40.20;97966.53;7348173;19;20342;-70
2023/03/07 11:07:33;;;;;;;6.85;4.60;;;;;;;4.14;40.24;97967.13;7345268;19;20334;-73
2023/03/07 11:10:01;;;;;;;8.45;4.45;;;;;;;4.19;40.14;97976.38;7348327;19;20014;-72
2023/03/07 11:12:28;;;;;;;9.63;5.07;;;;;;;3.57;41.43;97968.53;7348124;19;20010;-70
2023/03/07 11:15:08;;;;;;;7.80;4.65;;;;;;;3.56;41.40;97960.72;7346776;19;20019;-71
2023/03/07 11:17:45;;;;;;;8.68;5.55;;;;;;;3.93;40.89;97964.25;7351384;19;20019;-70
2023/03/07 11:20:22;;;;;;;7.93;4.53;;;;;;;3.66;41.64;97972.31;7347662;19;20042;-68
2023/03/07 11:22:47;;;;;;;10.45;4.57;;;;;;;3.52;42.27;97964.50;7347614;19;20011;-70
2023/03/07 11:25:17;;;;;;;9.05;5.68;;;;;;;3.54;41.93;97954.72;7349351;19;20082;-71
2023/03/07 11:27:44;;;;;;;8.05;5.20;;;;;;;3.58;42.05;97962.31;7347646;19;20033;-70
2023/03/07 11:30:23;;;;;;;6.55;4.35;;;;;;;3.74;41.91;97963.84;7348950;19;20418;-70
2023/03/07 11:33:06;;;;;;;13.05;4.40;;;;;;;3.64;41.68;97968.94;7347598;19;20018;-70
2023/03/07 11:35:57;;;;;;;7.03;4.18;;;;;;;3.55;41.75;97959.88;7344387;19;20014;-71